Platitera Tonouranon — SX7180 — position and weather

sailwx.info

Track history (hours):
 
Tides and Currents Weather Stations Pressure Air Temp Water Temp Dewpoint Dewpoint Depression Visibility Wind Speed Wind Dir Waves Ship Positions

Platitera Tonouranon

Last reported at 2014-Nov-01 13:33 UTC. Time now 2014-Nov-01 13:51 UTC.
Position N 37°39' E 023°25'.

Length 55 m; draft 3.8 m.

Type: Ship (hazmat cat A). MMSI: 237038200.

Date/timePositionNaut miles runAvg speedWind from/ knotsBaromVisibWave heightAir tempDewpointWater temp
2014-Nov-01 13:33N 37°39' E 023°25'8 1.4
2014-Nov-01 07:31N 37°43' E 023°35'1111.6
2014-Nov-01 06:34N 37°53' E 023°38'4 3.6
2014-Nov-01 05:34N 37°56' E 023°41'0 0.0
2014-Oct-31 17:28N 37°56' E 023°41'910.0
2014-Oct-31 16:34N 37°50' E 023°32'8 7.7
2014-Oct-31 15:33N 37°45' E 023°26'0 0.0
2014-Oct-31 14:33N 37°45' E 023°26'5 5.0
2014-Oct-31 13:32N 37°40' E 023°27'6 1.0
2014-Oct-31 07:33N 37°41' E 023°34'1111.5
2014-Oct-31 06:34N 37°52' E 023°38'5 4.5
2014-Oct-31 05:34N 37°56' E 023°41'0 0.0
2014-Oct-30 17:32N 37°56' E 023°41'9 9.4
2014-Oct-30 16:33N 37°50' E 023°32'8 7.0
2014-Oct-30 15:28N 37°45' E 023°26'0 0.0
2014-Oct-30 14:29N 37°45' E 023°26'5 4.8
2014-Oct-30 13:33N 37°40' E 023°25'8 1.3
2014-Oct-30 07:17N 37°45' E 023°34'811.3
2014-Oct-30 06:33N 37°52' E 023°38'5 4.6
2014-Oct-30 05:33N 37°56' E 023°41'0 0.0
2014-Oct-29 17:32N 37°56' E 023°41'10 9.8
2014-Oct-29 16:31N 37°49' E 023°32'7 7.2
2014-Oct-29 15:33N 37°45' E 023°26'0 0.0
2014-Oct-29 14:33N 37°45' E 023°26'4 4.2
2014-Oct-29 13:32N 37°40' E 023°25'9 1.5
2014-Oct-29 07:22N 37°43' E 023°37'911.8
2014-Oct-29 06:33N 37°53' E 023°39'4 3.9
2014-Oct-29 05:33N 37°56' E 023°41'0 0.0
2014-Oct-28 17:33N 37°56' E 023°41'1010.0
2014-Oct-28 16:33N 37°50' E 023°31'7 3.2
2014-Oct-28 14:26N 37°45' E 023°26'6 6.4
2014-Oct-28 13:34N 37°39' E 023°26'10 1.6
2014-Oct-28 07:30N 37°44' E 023°37'1111.7
2014-Oct-28 06:33N 37°54' E 023°40'2 1.9
2014-Oct-28 05:33N 37°56' E 023°41'0 0.0
2014-Oct-27 17:33N 37°56' E 023°41'1110.8
2014-Oct-27 16:33N 37°49' E 023°31'6 6.0
2014-Oct-27 15:33N 37°45' E 023°26'0 0.0
2014-Oct-27 14:32N 37°45' E 023°26'6 6.2
2014-Oct-27 13:33N 37°39' E 023°26'8 1.4
2014-Oct-27 07:21N 37°42' E 023°36'1012.1
2014-Oct-27 06:34N 37°52' E 023°38'5 5.1
2014-Oct-27 05:33N 37°56' E 023°41'0 0.0
2014-Oct-26 18:28N 37°56' E 023°41'6 6.8
2014-Oct-26 17:33N 37°53' E 023°35'1111.0
2014-Oct-26 16:33N 37°45' E 023°25'0 0.5
2014-Oct-26 15:33N 37°45' E 023°26'0 0.0
2014-Oct-26 14:33N 37°45' E 023°26'10 9.5
2014-Oct-26 13:32N 37°35' E 023°26'10 1.6
2014-Oct-26 07:30N 37°40' E 023°36'1111.9
2014-Oct-26 06:33N 37°51' E 023°38'5 5.2
2014-Oct-26 05:33N 37°56' E 023°41'0 0.0
2014-Oct-26 04:33N 37°56' E 023°41'0 0.0
2014-Oct-26 03:33N 37°56' E 023°41'0 0.0
2014-Oct-26 02:33N 37°56' E 023°41'0 0.0
2014-Oct-26 01:33N 37°56' E 023°41'0 0.0
2014-Oct-26 00:33N 37°56' E 023°41'0 0.0
2014-Oct-25 23:33N 37°56' E 023°41'0 0.0
2014-Oct-25 22:33N 37°56' E 023°41'0 0.0
2014-Oct-25 21:33N 37°56' E 023°41'0 0.0
2014-Oct-25 20:33N 37°56' E 023°41'0 0.0
2014-Oct-25 19:33N 37°56' E 023°41'0 0.0
2014-Oct-25 18:33N 37°56' E 023°41'0 0.0
2014-Oct-25 17:33N 37°56' E 023°41'0 0.2
2014-Oct-25 16:33N 37°56' E 023°41'1111.4
2014-Oct-25 15:33N 37°46' E 023°35'7 1.0
2014-Oct-25 08:30N 37°45' E 023°26'0 0.0
2014-Oct-25 07:05N 37°45' E 023°26'510.1
2014-Oct-25 06:33N 37°50' E 023°24'8 8.6
2014-Oct-25 05:34N 37°58' E 023°22'0 0.0
2014-Oct-25 04:33N 37°58' E 023°22'0 0.0
2014-Oct-25 03:34N 37°58' E 023°22'0 0.0
2014-Oct-25 02:33N 37°58' E 023°22'0 0.0
2014-Oct-25 01:33N 37°58' E 023°22'0 0.0
2014-Oct-25 00:33N 37°58' E 023°22'0 0.0
2014-Oct-24 23:34N 37°58' E 023°22'0 0.0
2014-Oct-24 22:34N 37°58' E 023°22'0 0.0
2014-Oct-24 21:33N 37°58' E 023°22'0 0.0
2014-Oct-24 20:33N 37°58' E 023°22'0 0.0
2014-Oct-24 19:33N 37°58' E 023°22'0 0.0
2014-Oct-24 18:34N 37°58' E 023°22'0 0.0
2014-Oct-24 17:34N 37°58' E 023°22'0 0.0
2014-Oct-24 16:33N 37°58' E 023°22'5 5.1
2014-Oct-24 15:30N 37°53' E 023°23'9 4.4
2014-Oct-24 13:33N 37°45' E 023°26'4 4.2
2014-Oct-24 12:33N 37°41' E 023°25'8 1.2
2014-Oct-24 06:17N 37°44' E 023°34'811.2
2014-Oct-24 05:33N 37°52' E 023°37'5 5.4
2014-Oct-24 04:33N 37°56' E 023°41'0 0.0
2014-Oct-24 03:33N 37°56' E 023°41'0 0.0
2014-Oct-24 02:33N 37°56' E 023°41'0 0.0
2014-Oct-24 01:33N 37°56' E 023°41'0 0.0
2014-Oct-24 00:33N 37°56' E 023°41'0 0.0
2014-Oct-23 23:33N 37°56' E 023°41'0 0.0
2014-Oct-23 22:33N 37°56' E 023°41'0 0.0
2014-Oct-23 21:33N 37°56' E 023°41'0 0.0
2014-Oct-23 20:33N 37°56' E 023°41'0 0.0
2014-Oct-23 19:33N 37°56' E 023°41'0 0.0
2014-Oct-23 18:33N 37°56' E 023°41'0 0.0
2014-Oct-23 17:33N 37°56' E 023°41'0 0.0
2014-Oct-23 16:33N 37°56' E 023°41'0 0.0
2014-Oct-23 15:33N 37°56' E 023°41'0 0.0
2014-Oct-23 14:33N 37°56' E 023°41'0 0.0
2014-Oct-23 13:33N 37°56' E 023°41'0 0.0
2014-Oct-23 12:33N 37°56' E 023°41'0 0.0
2014-Oct-23 11:33N 37°56' E 023°41'0 0.0
2014-Oct-23 10:33N 37°56' E 023°41'0 0.0
2014-Oct-23 09:33N 37°56' E 023°41'0 0.0
2014-Oct-23 08:33N 37°56' E 023°41'0 0.0
2014-Oct-23 07:33N 37°56' E 023°41'0 0.0
2014-Oct-23 06:33N 37°56' E 023°41'0 0.0
2014-Oct-23 05:33N 37°56' E 023°41'0 0.0
2014-Oct-23 04:33N 37°56' E 023°41'0 0.0
2014-Oct-23 03:33N 37°56' E 023°41'0 0.0
2014-Oct-23 02:33N 37°56' E 023°41'0 0.0
2014-Oct-23 01:33N 37°56' E 023°41'0 0.0
2014-Oct-23 00:33N 37°56' E 023°41'0 0.0
2014-Oct-22 23:34N 37°56' E 023°41'0 0.0
2014-Oct-22 22:33N 37°56' E 023°41'0 0.0
2014-Oct-22 21:33N 37°56' E 023°41'0 0.0
2014-Oct-22 20:33N 37°56' E 023°41'0 0.0
2014-Oct-22 19:33N 37°56' E 023°41'0 0.0
2014-Oct-22 18:33N 37°56' E 023°41'0 0.0
2014-Oct-22 17:33N 37°56' E 023°41'0 0.0
2014-Oct-22 16:33N 37°56' E 023°41'1110.6
2014-Oct-22 15:33N 37°49' E 023°32'6 5.9
2014-Oct-22 14:30N 37°45' E 023°26'  
Track history (hours):
 
Tides and Currents Weather Stations Pressure Air Temp Water Temp Dewpoint Dewpoint Depression Visibility Wind Speed Wind Dir Waves Ship Positions

Platitera Tonouranon

Last reported at 2014-Nov-01 13:33 UTC. Time now 2014-Nov-01 13:51 UTC.
Position N 37°39' E 023°25'.

Length 55 m; draft 3.8 m.

Type: Ship (hazmat cat A). MMSI: 237038200.

Date/timePositionNaut miles runAvg speedWind from/ knotsBaromVisibWave heightAir tempDewpointWater temp
2014-Nov-01 13:33N 37°39' E 023°25'8 1.4
2014-Nov-01 07:31N 37°43' E 023°35'1111.6
2014-Nov-01 06:34N 37°53' E 023°38'4 3.6
2014-Nov-01 05:34N 37°56' E 023°41'0 0.0
2014-Oct-31 17:28N 37°56' E 023°41'910.0
2014-Oct-31 16:34N 37°50' E 023°32'8 7.7
2014-Oct-31 15:33N 37°45' E 023°26'0 0.0
2014-Oct-31 14:33N 37°45' E 023°26'5 5.0
2014-Oct-31 13:32N 37°40' E 023°27'6 1.0
2014-Oct-31 07:33N 37°41' E 023°34'1111.5
2014-Oct-31 06:34N 37°52' E 023°38'5 4.5
2014-Oct-31 05:34N 37°56' E 023°41'0 0.0
2014-Oct-30 17:32N 37°56' E 023°41'9 9.4
2014-Oct-30 16:33N 37°50' E 023°32'8 7.0
2014-Oct-30 15:28N 37°45' E 023°26'0 0.0
2014-Oct-30 14:29N 37°45' E 023°26'5 4.8
2014-Oct-30 13:33N 37°40' E 023°25'8 1.3
2014-Oct-30 07:17N 37°45' E 023°34'811.3
2014-Oct-30 06:33N 37°52' E 023°38'5 4.6
2014-Oct-30 05:33N 37°56' E 023°41'0 0.0
2014-Oct-29 17:32N 37°56' E 023°41'10 9.8
2014-Oct-29 16:31N 37°49' E 023°32'7 7.2
2014-Oct-29 15:33N 37°45' E 023°26'0 0.0
2014-Oct-29 14:33N 37°45' E 023°26'4 4.2
2014-Oct-29 13:32N 37°40' E 023°25'9 1.5
2014-Oct-29 07:22N 37°43' E 023°37'911.8
2014-Oct-29 06:33N 37°53' E 023°39'4 3.9
2014-Oct-29 05:33N 37°56' E 023°41'0 0.0
2014-Oct-28 17:33N 37°56' E 023°41'1010.0
2014-Oct-28 16:33N 37°50' E 023°31'7 3.2
2014-Oct-28 14:26N 37°45' E 023°26'6 6.4
2014-Oct-28 13:34N 37°39' E 023°26'10 1.6
2014-Oct-28 07:30N 37°44' E 023°37'1111.7
2014-Oct-28 06:33N 37°54' E 023°40'2 1.9
2014-Oct-28 05:33N 37°56' E 023°41'0 0.0
2014-Oct-27 17:33N 37°56' E 023°41'1110.8
2014-Oct-27 16:33N 37°49' E 023°31'6 6.0
2014-Oct-27 15:33N 37°45' E 023°26'0 0.0
2014-Oct-27 14:32N 37°45' E 023°26'6 6.2
2014-Oct-27 13:33N 37°39' E 023°26'8 1.4
2014-Oct-27 07:21N 37°42' E 023°36'1012.1
2014-Oct-27 06:34N 37°52' E 023°38'5 5.1
2014-Oct-27 05:33N 37°56' E 023°41'0 0.0
2014-Oct-26 18:28N 37°56' E 023°41'6 6.8
2014-Oct-26 17:33N 37°53' E 023°35'1111.0
2014-Oct-26 16:33N 37°45' E 023°25'0 0.5
2014-Oct-26 15:33N 37°45' E 023°26'0 0.0
2014-Oct-26 14:33N 37°45' E 023°26'10 9.5
2014-Oct-26 13:32N 37°35' E 023°26'10 1.6
2014-Oct-26 07:30N 37°40' E 023°36'1111.9
2014-Oct-26 06:33N 37°51' E 023°38'5 5.2
2014-Oct-26 05:33N 37°56' E 023°41'0 0.0
2014-Oct-26 04:33N 37°56' E 023°41'0 0.0
2014-Oct-26 03:33N 37°56' E 023°41'0 0.0
2014-Oct-26 02:33N 37°56' E 023°41'0 0.0
2014-Oct-26 01:33N 37°56' E 023°41'0 0.0
2014-Oct-26 00:33N 37°56' E 023°41'0 0.0
2014-Oct-25 23:33N 37°56' E 023°41'0 0.0
2014-Oct-25 22:33N 37°56' E 023°41'0 0.0
2014-Oct-25 21:33N 37°56' E 023°41'0 0.0
2014-Oct-25 20:33N 37°56' E 023°41'0 0.0
2014-Oct-25 19:33N 37°56' E 023°41'0 0.0
2014-Oct-25 18:33N 37°56' E 023°41'0 0.0
2014-Oct-25 17:33N 37°56' E 023°41'0 0.2
2014-Oct-25 16:33N 37°56' E 023°41'1111.4
2014-Oct-25 15:33N 37°46' E 023°35'7 1.0
2014-Oct-25 08:30N 37°45' E 023°26'0 0.0
2014-Oct-25 07:05N 37°45' E 023°26'510.1
2014-Oct-25 06:33N 37°50' E 023°24'8 8.6
2014-Oct-25 05:34N 37°58' E 023°22'0 0.0
2014-Oct-25 04:33N 37°58' E 023°22'0 0.0
2014-Oct-25 03:34N 37°58' E 023°22'0 0.0
2014-Oct-25 02:33N 37°58' E 023°22'0 0.0
2014-Oct-25 01:33N 37°58' E 023°22'0 0.0
2014-Oct-25 00:33N 37°58' E 023°22'0 0.0
2014-Oct-24 23:34N 37°58' E 023°22'0 0.0
2014-Oct-24 22:34N 37°58' E 023°22'0 0.0
2014-Oct-24 21:33N 37°58' E 023°22'0 0.0
2014-Oct-24 20:33N 37°58' E 023°22'0 0.0
2014-Oct-24 19:33N 37°58' E 023°22'0 0.0
2014-Oct-24 18:34N 37°58' E 023°22'0 0.0
2014-Oct-24 17:34N 37°58' E 023°22'0 0.0
2014-Oct-24 16:33N 37°58' E 023°22'5 5.1
2014-Oct-24 15:30N 37°53' E 023°23'9 4.4
2014-Oct-24 13:33N 37°45' E 023°26'4 4.2
2014-Oct-24 12:33N 37°41' E 023°25'8 1.2
2014-Oct-24 06:17N 37°44' E 023°34'811.2
2014-Oct-24 05:33N 37°52' E 023°37'5 5.4
2014-Oct-24 04:33N 37°56' E 023°41'0 0.0
2014-Oct-24 03:33N 37°56' E 023°41'0 0.0
2014-Oct-24 02:33N 37°56' E 023°41'0 0.0
2014-Oct-24 01:33N 37°56' E 023°41'0 0.0
2014-Oct-24 00:33N 37°56' E 023°41'0 0.0
2014-Oct-23 23:33N 37°56' E 023°41'0 0.0
2014-Oct-23 22:33N 37°56' E 023°41'0 0.0
2014-Oct-23 21:33N 37°56' E 023°41'0 0.0
2014-Oct-23 20:33N 37°56' E 023°41'0 0.0
2014-Oct-23 19:33N 37°56' E 023°41'0 0.0
2014-Oct-23 18:33N 37°56' E 023°41'0 0.0
2014-Oct-23 17:33N 37°56' E 023°41'0 0.0
2014-Oct-23 16:33N 37°56' E 023°41'0 0.0
2014-Oct-23 15:33N 37°56' E 023°41'0 0.0
2014-Oct-23 14:33N 37°56' E 023°41'0 0.0
2014-Oct-23 13:33N 37°56' E 023°41'0 0.0
2014-Oct-23 12:33N 37°56' E 023°41'0 0.0
2014-Oct-23 11:33N 37°56' E 023°41'0 0.0
2014-Oct-23 10:33N 37°56' E 023°41'0 0.0
2014-Oct-23 09:33N 37°56' E 023°41'0 0.0
2014-Oct-23 08:33N 37°56' E 023°41'0 0.0
2014-Oct-23 07:33N 37°56' E 023°41'0 0.0
2014-Oct-23 06:33N 37°56' E 023°41'0 0.0
2014-Oct-23 05:33N 37°56' E 023°41'0 0.0
2014-Oct-23 04:33N 37°56' E 023°41'0 0.0
2014-Oct-23 03:33N 37°56' E 023°41'0 0.0
2014-Oct-23 02:33N 37°56' E 023°41'0 0.0
2014-Oct-23 01:33N 37°56' E 023°41'0 0.0
2014-Oct-23 00:33N 37°56' E 023°41'0 0.0
2014-Oct-22 23:34N 37°56' E 023°41'0 0.0
2014-Oct-22 22:33N 37°56' E 023°41'0 0.0
2014-Oct-22 21:33N 37°56' E 023°41'0 0.0
2014-Oct-22 20:33N 37°56' E 023°41'0 0.0
2014-Oct-22 19:33N 37°56' E 023°41'0 0.0
2014-Oct-22 18:33N 37°56' E 023°41'0 0.0
2014-Oct-22 17:33N 37°56' E 023°41'0 0.0
2014-Oct-22 16:33N 37°56' E 023°41'1110.6
2014-Oct-22 15:33N 37°49' E 023°32'6 5.9
2014-Oct-22 14:30N 37°45' E 023°26'  

Dump ship's entire track history